PWSweather.com
Personal Weather Stations
Station Observations
ISARDEGN48
BittiIT 08021

BittiIT 08021

Lat: 40.4805, Lon: 9.3887

Elevation: 1804

Station Type: La Crosse WS2355

http://meteobitti.altervista.org

High Low Average
Temperature 55.2°F12.9°C 46.8°F8.2°C 51.7°F10.9°C
Dew Point 49.6°F9.8°C 44.3°F6.8°C 47.5°F8.6°C
Winds 13.0 mph 20.9 kmh Calm Calm 1.0 mph ENE1.6 kmh ENE
Wind Gusts 22.1 mph35.6 kmh -- 3.0 mph4.8 kmh
Humidity 91% 79% 86%
Pressure 29.60 in1002.4 mb 29.32 in992.9 mb -
Precipitation 0.26 in6.6 mm - -
Hour Temp Dew Point Humidity Winds Wind Gusts Pressure Precip Precip Rate Daily Precip Total
12:00 AM 52.2°F11.2°C 47.1°F8.4°C 83% 1.3 mph WSW2.1 kmh WSW 6.5 mph10.5 kmh 29.60 in1002.4 mb 0.00 in0.0 mm 0.00 in0.0 mm 0.00 in0.0 mm
12:05 AM 52.0°F11.1°C 47.0°F8.3°C 83% Calm Calm 4.7 mph7.6 kmh 29.60 in1002.4 mb 0.00 in0.0 mm 0.00 in0.0 mm 0.00 in0.0 mm
12:10 AM 52.0°F11.1°C 47.0°F8.3°C 83% Calm Calm 1.8 mph2.9 kmh 29.59 in1002.0 mb 0.00 in0.0 mm 0.00 in0.0 mm 0.00 in0.0 mm
12:15 AM 51.8°F11.0°C 46.8°F8.2°C 83% 1.6 mph NE2.6 kmh NE 2.7 mph4.3 kmh 29.59 in1002.0 mb 0.00 in0.0 mm 0.00 in0.0 mm 0.00 in0.0 mm
12:20 AM 51.8°F11.0°C 46.8°F8.2°C 83% Calm Calm 2.7 mph4.3 kmh 29.59 in1002.0 mb 0.00 in0.0 mm 0.00 in0.0 mm 0.00 in0.0 mm
12:25 AM 51.6°F10.9°C 46.9°F8.3°C 84% 2.2 mph N3.5 kmh N 2.2 mph3.5 kmh 29.59 in1002.0 mb 0.00 in0.0 mm 0.00 in0.0 mm 0.00 in0.0 mm
12:30 AM 51.8°F11.0°C 47.1°F8.4°C 84% Calm Calm 2.2 mph3.5 kmh 29.59 in1002.0 mb 0.00 in0.0 mm 0.00 in0.0 mm 0.00 in0.0 mm
12:35 AM 51.8°F11.0°C 47.1°F8.4°C 84% Calm Calm 2.2 mph3.5 kmh 29.59 in1002.0 mb 0.00 in0.0 mm 0.00 in0.0 mm 0.00 in0.0 mm
12:40 AM 51.8°F11.0°C 47.1°F8.4°C 84% Calm Calm 3.6 mph5.8 kmh 29.58 in1001.7 mb 0.00 in0.0 mm 0.00 in0.0 mm 0.00 in0.0 mm
12:45 AM 51.6°F10.9°C 46.9°F8.3°C 84% Calm Calm 3.6 mph5.8 kmh 29.58 in1001.7 mb 0.00 in0.0 mm 0.00 in0.0 mm 0.00 in0.0 mm
12:50 AM 51.6°F10.9°C 46.9°F8.3°C 84% Calm Calm 4.5 mph7.2 kmh 29.58 in1001.7 mb 0.00 in0.0 mm 0.00 in0.0 mm 0.00 in0.0 mm
12:55 AM 51.6°F10.9°C 46.9°F8.3°C 84% 1.3 mph NW2.1 kmh NW 4.5 mph7.2 kmh 29.58 in1001.7 mb 0.00 in0.0 mm 0.00 in0.0 mm 0.00 in0.0 mm
01:00 AM 51.6°F10.9°C 46.9°F8.3°C 84% 0.9 mph WNW1.4 kmh WNW 3.8 mph6.1 kmh 29.58 in1001.7 mb 0.00 in0.0 mm 0.00 in0.0 mm 0.00 in0.0 mm
01:05 AM 51.6°F10.9°C 46.9°F8.3°C 84% Calm Calm 3.8 mph6.1 kmh 29.57 in1001.4 mb 0.00 in0.0 mm 0.00 in0.0 mm 0.00 in0.0 mm
01:10 AM 51.6°F10.9°C 46.9°F8.3°C 84% 2.9 mph SW4.7 kmh SW 7.8 mph12.6 kmh 29.57 in1001.4 mb 0.00 in0.0 mm 0.00 in0.0 mm 0.00 in0.0 mm
01:15 AM 51.8°F11.0°C 47.1°F8.4°C 84% Calm Calm 7.8 mph12.6 kmh 29.57 in1001.4 mb 0.00 in0.0 mm 0.00 in0.0 mm 0.00 in0.0 mm
01:20 AM 51.8°F11.0°C 47.1°F8.4°C 84% Calm Calm 3.1 mph5.0 kmh 29.57 in1001.4 mb 0.00 in0.0 mm 0.00 in0.0 mm 0.00 in0.0 mm
01:25 AM 52.0°F11.1°C 47.3°F8.5°C 84% Calm Calm 1.8 mph2.9 kmh 29.57 in1001.4 mb 0.00 in0.0 mm 0.00 in0.0 mm 0.00 in0.0 mm
01:30 AM 52.0°F11.1°C 47.3°F8.5°C 84% Calm Calm 1.8 mph2.9 kmh 29.57 in1001.4 mb 0.00 in0.0 mm 0.00 in0.0 mm 0.00 in0.0 mm
01:35 AM 52.0°F11.1°C 47.3°F8.5°C 84% Calm Calm 1.1 mph1.8 kmh 29.57 in1001.4 mb 0.00 in0.0 mm 0.00 in0.0 mm 0.00 in0.0 mm
01:40 AM 51.8°F11.0°C 47.1°F8.4°C 84% Calm Calm 0.9 mph1.4 kmh 29.56 in1001.0 mb 0.00 in0.0 mm 0.00 in0.0 mm 0.00 in0.0 mm
01:45 AM 51.8°F11.0°C 47.1°F8.4°C 84% Calm Calm 0.9 mph1.4 kmh 29.57 in1001.4 mb 0.00 in0.0 mm 0.00 in0.0 mm 0.00 in0.0 mm
01:50 AM 51.6°F10.9°C 46.9°F8.3°C 84% Calm Calm 1.3 mph2.1 kmh 29.56 in1001.0 mb 0.00 in0.0 mm 0.00 in0.0 mm 0.00 in0.0 mm
01:55 AM 51.6°F10.9°C 46.9°F8.3°C 84% Calm Calm 1.6 mph2.6 kmh 29.56 in1001.0 mb 0.00 in0.0 mm 0.00 in0.0 mm 0.00 in0.0 mm
02:00 AM 51.4°F10.8°C 46.7°F8.2°C 84% Calm Calm 1.6 mph2.6 kmh 29.56 in1001.0 mb 0.00 in0.0 mm 0.00 in0.0 mm 0.00 in0.0 mm
02:05 AM 51.4°F10.8°C 46.7°F8.2°C 84% Calm Calm 1.8 mph2.9 kmh 29.56 in1001.0 mb 0.00 in0.0 mm 0.00 in0.0 mm 0.00 in0.0 mm
02:10 AM 51.4°F10.8°C 47.0°F8.3°C 85% Calm Calm 1.8 mph2.9 kmh 29.56 in1001.0 mb 0.00 in0.0 mm 0.00 in0.0 mm 0.00 in0.0 mm
02:15 AM 51.4°F10.8°C 47.0°F8.3°C 85% Calm Calm 1.8 mph2.9 kmh 29.55 in1000.7 mb 0.00 in0.0 mm 0.00 in0.0 mm 0.00 in0.0 mm
02:20 AM 51.4°F10.8°C 47.0°F8.3°C 85% Calm Calm 1.8 mph2.9 kmh 29.55 in1000.7 mb 0.00 in0.0 mm 0.00 in0.0 mm 0.00 in0.0 mm
02:25 AM 51.3°F10.7°C 46.8°F8.2°C 85% Calm Calm 2.7 mph4.3 kmh 29.55 in1000.7 mb 0.00 in0.0 mm 0.00 in0.0 mm 0.00 in0.0 mm
02:30 AM 51.3°F10.7°C 46.8°F8.2°C 85% Calm Calm 2.7 mph4.3 kmh 29.55 in1000.7 mb 0.00 in0.0 mm 0.00 in0.0 mm 0.00 in0.0 mm
02:35 AM 51.1°F10.6°C 46.4°F8.0°C 84% Calm Calm 2.0 mph3.2 kmh 29.55 in1000.7 mb 0.00 in0.0 mm 0.00 in0.0 mm 0.00 in0.0 mm
02:40 AM 51.1°F10.6°C 46.7°F8.2°C 85% 2.5 mph SSW4.0 kmh SSW 2.5 mph4.0 kmh 29.55 in1000.7 mb 0.00 in0.0 mm 0.00 in0.0 mm 0.00 in0.0 mm
02:45 AM 50.9°F10.5°C 46.2°F7.9°C 84% Calm Calm 2.5 mph4.0 kmh 29.55 in1000.7 mb 0.00 in0.0 mm 0.00 in0.0 mm 0.00 in0.0 mm
02:50 AM 50.9°F10.5°C 46.2°F7.9°C 84% 1.6 mph S2.6 kmh S 2.9 mph4.7 kmh 29.55 in1000.7 mb 0.00 in0.0 mm 0.00 in0.0 mm 0.00 in0.0 mm
02:55 AM 50.9°F10.5°C 46.2°F7.9°C 84% Calm Calm 2.9 mph4.7 kmh 29.54 in1000.3 mb 0.00 in0.0 mm 0.00 in0.0 mm 0.00 in0.0 mm
03:00 AM 51.1°F10.6°C 46.1°F7.8°C 83% Calm Calm 1.3 mph2.1 kmh 29.54 in1000.3 mb 0.00 in0.0 mm 0.00 in0.0 mm 0.00 in0.0 mm
03:05 AM 51.3°F10.7°C 46.2°F7.9°C 83% Calm Calm 0.9 mph1.4 kmh 29.54 in1000.3 mb 0.00 in0.0 mm 0.00 in0.0 mm 0.00 in0.0 mm
03:10 AM 51.3°F10.7°C 45.9°F7.7°C 82% 1.6 mph SW2.6 kmh SW 1.6 mph2.6 kmh 29.53 in1000.0 mb 0.00 in0.0 mm 0.00 in0.0 mm 0.00 in0.0 mm
03:15 AM 51.1°F10.6°C 45.8°F7.7°C 82% Calm Calm 2.0 mph3.2 kmh 29.53 in1000.0 mb 0.00 in0.0 mm 0.00 in0.0 mm 0.00 in0.0 mm
03:20 AM 51.1°F10.6°C 45.8°F7.7°C 82% Calm Calm 2.0 mph3.2 kmh 29.54 in1000.3 mb 0.00 in0.0 mm 0.00 in0.0 mm 0.00 in0.0 mm
03:25 AM 51.4°F10.8°C 46.1°F7.8°C 82% Calm Calm 1.6 mph2.6 kmh 29.53 in1000.0 mb 0.00 in0.0 mm 0.00 in0.0 mm 0.00 in0.0 mm
03:30 AM 51.6°F10.9°C 46.0°F7.8°C 81% Calm Calm 1.6 mph2.6 kmh 29.53 in1000.0 mb 0.00 in0.0 mm 0.00 in0.0 mm 0.00 in0.0 mm
03:35 AM 51.6°F10.9°C 46.0°F7.8°C 81% Calm Calm 1.1 mph1.8 kmh 29.53 in1000.0 mb 0.00 in0.0 mm 0.00 in0.0 mm 0.00 in0.0 mm
03:40 AM 51.8°F11.0°C 46.2°F7.9°C 81% Calm Calm 1.8 mph2.9 kmh 29.53 in1000.0 mb 0.00 in0.0 mm 0.00 in0.0 mm 0.00 in0.0 mm
03:45 AM 52.0°F11.1°C 46.3°F7.9°C 81% Calm Calm 1.8 mph2.9 kmh 29.52 in999.7 mb 0.00 in0.0 mm 0.00 in0.0 mm 0.00 in0.0 mm
03:50 AM 52.0°F11.1°C 46.3°F7.9°C 81% 2.2 mph WSW3.5 kmh WSW 2.2 mph3.5 kmh 29.52 in999.7 mb 0.00 in0.0 mm 0.00 in0.0 mm 0.00 in0.0 mm
03:55 AM 51.6°F10.9°C 46.3°F7.9°C 82% 1.1 mph SSW1.8 kmh SSW 3.4 mph5.5 kmh 29.52 in999.7 mb 0.00 in0.0 mm 0.00 in0.0 mm 0.00 in0.0 mm
04:00 AM 51.4°F10.8°C 46.4°F8.0°C 83% Calm Calm 3.4 mph5.5 kmh 29.51 in999.3 mb 0.00 in0.0 mm 0.00 in0.0 mm 0.00 in0.0 mm
04:05 AM 51.3°F10.7°C 46.2°F7.9°C 83% 2.2 mph SSW3.5 kmh SSW 2.2 mph3.5 kmh 29.51 in999.3 mb 0.00 in0.0 mm 0.00 in0.0 mm 0.00 in0.0 mm
04:10 AM 51.1°F10.6°C 46.4°F8.0°C 84% 1.3 mph S2.1 kmh S 3.4 mph5.5 kmh 29.51 in999.3 mb 0.00 in0.0 mm 0.00 in0.0 mm 0.00 in0.0 mm
04:15 AM 51.1°F10.6°C 46.4°F8.0°C 84% Calm Calm 3.4 mph5.5 kmh 29.50 in999.0 mb 0.00 in0.0 mm 0.00 in0.0 mm 0.00 in0.0 mm
04:20 AM 50.9°F10.5°C 46.2°F7.9°C 84% Calm Calm 2.9 mph4.7 kmh 29.50 in999.0 mb 0.00 in0.0 mm 0.00 in0.0 mm 0.00 in0.0 mm
04:25 AM 50.7°F10.4°C 46.3°F7.9°C 85% 1.6 mph SSW2.6 kmh SSW 2.9 mph4.7 kmh 29.50 in999.0 mb 0.00 in0.0 mm 0.00 in0.0 mm 0.00 in0.0 mm
04:30 AM 50.7°F10.4°C 46.3°F7.9°C 85% Calm Calm 2.9 mph4.7 kmh 29.50 in999.0 mb 0.00 in0.0 mm 0.00 in0.0 mm 0.00 in0.0 mm
04:35 AM 50.7°F10.4°C 46.3°F7.9°C 85% Calm Calm 2.5 mph4.0 kmh 29.50 in999.0 mb 0.00 in0.0 mm 0.00 in0.0 mm 0.00 in0.0 mm
04:40 AM 50.7°F10.4°C 46.3°F7.9°C 85% Calm Calm 2.5 mph4.0 kmh 29.50 in999.0 mb 0.00 in0.0 mm 0.00 in0.0 mm 0.00 in0.0 mm
04:45 AM 50.7°F10.4°C 46.3°F7.9°C 85% Calm Calm 3.4 mph5.5 kmh 29.49 in998.6 mb 0.00 in0.0 mm 0.00 in0.0 mm 0.00 in0.0 mm
04:50 AM 50.7°F10.4°C 46.3°F7.9°C 85% Calm Calm 3.4 mph5.5 kmh 29.49 in998.6 mb 0.00 in0.0 mm 0.00 in0.0 mm 0.00 in0.0 mm
04:55 AM 50.7°F10.4°C 46.3°F7.9°C 85% 1.6 mph SW2.6 kmh SW 2.2 mph3.5 kmh 29.49 in998.6 mb 0.00 in0.0 mm 0.00 in0.0 mm 0.00 in0.0 mm
05:00 AM 50.7°F10.4°C 46.3°F7.9°C 85% Calm Calm 2.2 mph3.5 kmh 29.49 in998.6 mb 0.00 in0.0 mm 0.00 in0.0 mm 0.00 in0.0 mm
05:05 AM 50.9°F10.5°C 46.2°F7.9°C 84% Calm Calm 1.6 mph2.6 kmh 29.49 in998.6 mb 0.00 in0.0 mm 0.00 in0.0 mm 0.00 in0.0 mm
05:10 AM 51.1°F10.6°C 46.4°F8.0°C 84% 1.1 mph SE1.8 kmh SE 1.6 mph2.6 kmh 29.49 in998.6 mb 0.00 in0.0 mm 0.00 in0.0 mm 0.00 in0.0 mm
05:15 AM 51.6°F10.9°C 46.6°F8.1°C 83% Calm Calm 1.6 mph2.6 kmh 29.49 in998.6 mb 0.00 in0.0 mm 0.00 in0.0 mm 0.00 in0.0 mm
05:20 AM 51.6°F10.9°C 46.6°F8.1°C 83% Calm Calm 2.5 mph4.0 kmh 29.49 in998.6 mb 0.00 in0.0 mm 0.00 in0.0 mm 0.00 in0.0 mm
05:25 AM 51.8°F11.0°C 46.5°F8.1°C 82% Calm Calm 2.5 mph4.0 kmh 29.48 in998.3 mb 0.00 in0.0 mm 0.00 in0.0 mm 0.00 in0.0 mm
05:30 AM 52.0°F11.1°C 46.7°F8.2°C 82% Calm Calm 2.9 mph4.7 kmh 29.48 in998.3 mb 0.00 in0.0 mm 0.00 in0.0 mm 0.00 in0.0 mm
05:35 AM 52.0°F11.1°C 46.7°F8.2°C 82% Calm Calm 2.9 mph4.7 kmh 29.48 in998.3 mb 0.00 in0.0 mm 0.00 in0.0 mm 0.00 in0.0 mm
05:40 AM 52.3°F11.3°C 47.0°F8.3°C 82% 0.9 mph S1.4 kmh S 1.3 mph2.1 kmh 29.47 in998.0 mb 0.00 in0.0 mm 0.00 in0.0 mm 0.00 in0.0 mm
05:45 AM 52.5°F11.4°C 47.2°F8.4°C 82% Calm Calm 2.2 mph3.5 kmh 29.47 in998.0 mb 0.00 in0.0 mm 0.00 in0.0 mm 0.00 in0.0 mm
05:50 AM 52.9°F11.6°C 47.6°F8.7°C 82% 1.1 mph NNE1.8 kmh NNE 2.5 mph4.0 kmh 29.47 in998.0 mb 0.00 in0.0 mm 0.00 in0.0 mm 0.00 in0.0 mm
05:55 AM 53.2°F11.8°C 47.9°F8.8°C 82% Calm Calm 2.7 mph4.3 kmh 29.46 in997.6 mb 0.00 in0.0 mm 0.00 in0.0 mm 0.00 in0.0 mm
06:00 AM 53.2°F11.8°C 47.9°F8.8°C 82% Calm Calm 2.7 mph4.3 kmh 29.46 in997.6 mb 0.00 in0.0 mm 0.00 in0.0 mm 0.00 in0.0 mm
06:05 AM 53.2°F11.8°C 47.9°F8.8°C 82% Calm Calm 1.3 mph2.1 kmh 29.46 in997.6 mb 0.00 in0.0 mm 0.00 in0.0 mm 0.00 in0.0 mm
06:10 AM 53.4°F11.9°C 48.1°F8.9°C 82% Calm Calm 2.0 mph3.2 kmh 29.46 in997.6 mb 0.00 in0.0 mm 0.00 in0.0 mm 0.00 in0.0 mm
06:15 AM 53.2°F11.8°C 47.9°F8.8°C 82% 1.3 mph S2.1 kmh S 3.4 mph5.5 kmh 29.46 in997.6 mb 0.00 in0.0 mm 0.00 in0.0 mm 0.00 in0.0 mm
06:20 AM 52.9°F11.6°C 47.9°F8.8°C 83% Calm Calm 3.4 mph5.5 kmh 29.46 in997.6 mb 0.00 in0.0 mm 0.00 in0.0 mm 0.00 in0.0 mm
06:25 AM 52.9°F11.6°C 47.9°F8.8°C 83% Calm Calm 2.9 mph4.7 kmh 29.46 in997.6 mb 0.00 in0.0 mm 0.00 in0.0 mm 0.00 in0.0 mm
06:30 AM 52.9°F11.6°C 47.9°F8.8°C 83% Calm Calm 1.3 mph2.1 kmh 29.46 in997.6 mb 0.00 in0.0 mm 0.00 in0.0 mm 0.00 in0.0 mm
06:35 AM 52.7°F11.5°C 47.7°F8.7°C 83% 0.9 mph NNW1.4 kmh NNW 1.3 mph2.1 kmh 29.46 in997.6 mb 0.00 in0.0 mm 0.00 in0.0 mm 0.00 in0.0 mm
06:40 AM 52.9°F11.6°C 48.2°F9.0°C 84% 1.6 mph WNW2.6 kmh WNW 3.8 mph6.1 kmh 29.46 in997.6 mb 0.00 in0.0 mm 0.00 in0.0 mm 0.00 in0.0 mm
06:45 AM 53.2°F11.8°C 48.8°F9.3°C 85% Calm Calm 5.1 mph8.2 kmh 29.46 in997.6 mb 0.00 in0.0 mm 0.00 in0.0 mm 0.00 in0.0 mm
06:50 AM 53.2°F11.8°C 48.8°F9.3°C 85% 0.7 mph W1.1 kmh W 5.1 mph8.2 kmh 29.46 in997.6 mb 0.00 in0.0 mm 0.00 in0.0 mm 0.00 in0.0 mm
06:55 AM 53.2°F11.8°C 48.8°F9.3°C 85% Calm Calm 3.6 mph5.8 kmh 29.46 in997.6 mb 0.00 in0.0 mm 0.00 in0.0 mm 0.00 in0.0 mm
07:00 AM 53.2°F11.8°C 48.8°F9.3°C 85% Calm Calm 3.8 mph6.1 kmh 29.46 in997.6 mb 0.00 in0.0 mm 0.00 in0.0 mm 0.00 in0.0 mm
07:05 AM 53.2°F11.8°C 48.8°F9.3°C 85% Calm Calm 3.8 mph6.1 kmh 29.46 in997.6 mb 0.00 in0.0 mm 0.00 in0.0 mm 0.00 in0.0 mm
07:10 AM 53.2°F11.8°C 48.8°F9.3°C 85% 0.9 mph SW1.4 kmh SW 1.1 mph1.8 kmh 29.46 in997.6 mb 0.00 in0.0 mm 0.00 in0.0 mm 0.00 in0.0 mm
07:15 AM 53.1°F11.7°C 48.7°F9.3°C 85% 1.6 mph SW2.6 kmh SW 2.2 mph3.5 kmh 29.46 in997.6 mb 0.00 in0.0 mm 0.00 in0.0 mm 0.00 in0.0 mm
07:20 AM 52.9°F11.6°C 48.5°F9.2°C 85% Calm Calm 2.2 mph3.5 kmh 29.45 in997.3 mb 0.00 in0.0 mm 0.00 in0.0 mm 0.00 in0.0 mm
07:25 AM 52.9°F11.6°C 48.5°F9.2°C 85% Calm Calm 2.2 mph3.5 kmh 29.45 in997.3 mb 0.00 in0.0 mm 0.00 in0.0 mm 0.00 in0.0 mm
07:30 AM 52.9°F11.6°C 48.8°F9.3°C 86% Calm Calm 2.2 mph3.5 kmh 29.45 in997.3 mb 0.00 in0.0 mm 0.00 in0.0 mm 0.00 in0.0 mm
07:35 AM 52.7°F11.5°C 48.6°F9.2°C 86% 2.0 mph NNE3.2 kmh NNE 2.5 mph4.0 kmh 29.45 in997.3 mb 0.00 in0.0 mm 0.00 in0.0 mm 0.00 in0.0 mm
07:40 AM 52.5°F11.4°C 48.4°F9.1°C 86% Calm Calm 2.5 mph4.0 kmh 29.45 in997.3 mb 0.00 in0.0 mm 0.00 in0.0 mm 0.00 in0.0 mm
07:45 AM 52.5°F11.4°C 48.4°F9.1°C 86% Calm Calm 2.7 mph4.3 kmh 29.45 in997.3 mb 0.00 in0.0 mm 0.00 in0.0 mm 0.00 in0.0 mm
07:50 AM 52.5°F11.4°C 48.4°F9.1°C 86% Calm Calm 2.7 mph4.3 kmh 29.45 in997.3 mb 0.00 in0.0 mm 0.00 in0.0 mm 0.00 in0.0 mm
07:55 AM 52.3°F11.3°C 48.2°F9.0°C 86% Calm Calm 1.3 mph2.1 kmh 29.44 in997.0 mb 0.00 in0.0 mm 0.00 in0.0 mm 0.00 in0.0 mm
08:00 AM 52.3°F11.3°C 48.2°F9.0°C 86% Calm Calm 1.3 mph2.1 kmh 29.44 in997.0 mb 0.00 in0.0 mm 0.00 in0.0 mm 0.00 in0.0 mm
08:05 AM 52.3°F11.3°C 48.2°F9.0°C 86% 2.2 mph ENE3.5 kmh ENE 2.2 mph3.5 kmh 29.44 in997.0 mb 0.00 in0.0 mm 0.00 in0.0 mm 0.00 in0.0 mm
08:10 AM 52.3°F11.3°C 48.2°F9.0°C 86% 1.6 mph E2.6 kmh E 4.3 mph6.9 kmh 29.44 in997.0 mb 0.00 in0.0 mm 0.00 in0.0 mm 0.00 in0.0 mm
08:15 AM 52.7°F11.5°C 48.6°F9.2°C 86% Calm Calm 4.3 mph6.9 kmh 29.44 in997.0 mb 0.00 in0.0 mm 0.00 in0.0 mm 0.00 in0.0 mm
08:20 AM 52.7°F11.5°C 48.6°F9.2°C 86% 0.7 mph ENE1.1 kmh ENE 4.3 mph6.9 kmh 29.44 in997.0 mb 0.00 in0.0 mm 0.00 in0.0 mm 0.00 in0.0 mm
08:25 AM 52.7°F11.5°C 48.3°F9.1°C 85% Calm Calm 1.8 mph2.9 kmh 29.44 in997.0 mb 0.00 in0.0 mm 0.00 in0.0 mm 0.00 in0.0 mm
08:30 AM 52.9°F11.6°C 48.5°F9.2°C 85% Calm Calm 1.8 mph2.9 kmh 29.44 in997.0 mb 0.00 in0.0 mm 0.00 in0.0 mm 0.00 in0.0 mm
08:35 AM 52.9°F11.6°C 48.5°F9.2°C 85% Calm Calm 2.0 mph3.2 kmh 29.45 in997.3 mb 0.00 in0.0 mm 0.00 in0.0 mm 0.00 in0.0 mm
08:40 AM 52.9°F11.6°C 48.5°F9.2°C 85% Calm Calm 2.2 mph3.5 kmh 29.45 in997.3 mb 0.00 in0.0 mm 0.00 in0.0 mm 0.00 in0.0 mm
08:45 AM 52.9°F11.6°C 48.5°F9.2°C 85% 1.1 mph SW1.8 kmh SW 3.6 mph5.8 kmh 29.45 in997.3 mb 0.00 in0.0 mm 0.00 in0.0 mm 0.00 in0.0 mm
08:50 AM 52.9°F11.6°C 48.5°F9.2°C 85% Calm Calm 3.6 mph5.8 kmh 29.45 in997.3 mb 0.00 in0.0 mm 0.00 in0.0 mm 0.00 in0.0 mm
08:55 AM 52.9°F11.6°C 48.5°F9.2°C 85% Calm Calm 2.0 mph3.2 kmh 29.45 in997.3 mb 0.00 in0.0 mm 0.00 in0.0 mm 0.00 in0.0 mm
09:00 AM 52.9°F11.6°C 48.5°F9.2°C 85% 1.3 mph ENE2.1 kmh ENE 2.0 mph3.2 kmh 29.45 in997.3 mb 0.00 in0.0 mm 0.00 in0.0 mm 0.00 in0.0 mm
09:05 AM 52.9°F11.6°C 48.8°F9.3°C 86% Calm Calm 2.0 mph3.2 kmh 29.45 in997.3 mb 0.00 in0.0 mm 0.00 in0.0 mm 0.00 in0.0 mm
09:10 AM 52.9°F11.6°C 48.8°F9.3°C 86% 1.6 mph NW2.6 kmh NW 2.0 mph3.2 kmh 29.45 in997.3 mb 0.00 in0.0 mm 0.00 in0.0 mm 0.00 in0.0 mm
09:15 AM 52.9°F11.6°C 48.8°F9.3°C 86% 1.8 mph E2.9 kmh E 2.2 mph3.5 kmh 29.45 in997.3 mb 0.00 in0.0 mm 0.00 in0.0 mm 0.00 in0.0 mm
09:20 AM 52.9°F11.6°C 48.8°F9.3°C 86% Calm Calm 2.2 mph3.5 kmh 29.44 in997.0 mb 0.00 in0.0 mm 0.00 in0.0 mm 0.00 in0.0 mm
09:25 AM 52.9°F11.6°C 48.8°F9.3°C 86% 0.9 mph SE1.4 kmh SE 1.3 mph2.1 kmh 29.44 in997.0 mb 0.00 in0.0 mm 0.00 in0.0 mm 0.00 in0.0 mm
09:30 AM 52.9°F11.6°C 48.8°F9.3°C 86% 1.6 mph SE2.6 kmh SE 1.6 mph2.6 kmh 29.44 in997.0 mb 0.00 in0.0 mm 0.00 in0.0 mm 0.00 in0.0 mm
09:35 AM 52.9°F11.6°C 48.8°F9.3°C 86% Calm Calm 2.0 mph3.2 kmh 29.43 in996.6 mb 0.00 in0.0 mm 0.00 in0.0 mm 0.00 in0.0 mm
09:40 AM 52.9°F11.6°C 48.8°F9.3°C 86% 2.7 mph NE4.3 kmh NE 3.4 mph5.5 kmh 29.43 in996.6 mb 0.00 in0.0 mm 0.00 in0.0 mm 0.00 in0.0 mm
09:45 AM 52.9°F11.6°C 48.8°F9.3°C 86% 1.3 mph NE2.1 kmh NE 4.5 mph7.2 kmh 29.43 in996.6 mb 0.00 in0.0 mm 0.00 in0.0 mm 0.00 in0.0 mm
09:50 AM 53.1°F11.7°C 49.0°F9.4°C 86% Calm Calm 4.5 mph7.2 kmh 29.43 in996.6 mb 0.00 in0.0 mm 0.00 in0.0 mm 0.00 in0.0 mm
09:55 AM 53.2°F11.8°C 49.1°F9.5°C 86% Calm Calm 1.6 mph2.6 kmh 29.43 in996.6 mb 0.00 in0.0 mm 0.00 in0.0 mm 0.00 in0.0 mm
10:00 AM 53.1°F11.7°C 49.0°F9.4°C 86% Calm Calm 1.6 mph2.6 kmh 29.43 in996.6 mb 0.00 in0.0 mm 0.00 in0.0 mm 0.00 in0.0 mm
10:05 AM 53.1°F11.7°C 49.0°F9.4°C 86% Calm Calm 1.6 mph2.6 kmh 29.42 in996.3 mb 0.00 in0.0 mm 0.00 in0.0 mm 0.00 in0.0 mm
10:10 AM 53.2°F11.8°C 49.1°F9.5°C 86% Calm Calm 0.9 mph1.4 kmh 29.43 in996.6 mb 0.00 in0.0 mm 0.00 in0.0 mm 0.00 in0.0 mm
10:15 AM 53.2°F11.8°C 49.1°F9.5°C 86% Calm Calm 1.6 mph2.6 kmh 29.43 in996.6 mb 0.00 in0.0 mm 0.00 in0.0 mm 0.00 in0.0 mm
10:20 AM 53.2°F11.8°C 49.1°F9.5°C 86% Calm Calm 1.6 mph2.6 kmh 29.43 in996.6 mb 0.00 in0.0 mm 0.00 in0.0 mm 0.00 in0.0 mm
10:25 AM 53.2°F11.8°C 49.1°F9.5°C 86% Calm Calm -- 29.43 in996.6 mb 0.00 in0.0 mm 0.00 in0.0 mm 0.00 in0.0 mm
10:30 AM 53.2°F11.8°C 49.1°F9.5°C 86% Calm Calm 1.3 mph2.1 kmh 29.43 in996.6 mb 0.00 in0.0 mm 0.00 in0.0 mm 0.00 in0.0 mm
10:35 AM 53.2°F11.8°C 49.1°F9.5°C 86% 3.1 mph NE5.0 kmh NE 3.4 mph5.5 kmh 29.43 in996.6 mb 0.00 in0.0 mm 0.00 in0.0 mm 0.00 in0.0 mm
10:40 AM 53.2°F11.8°C 48.8°F9.3°C 85% 2.7 mph NE4.3 kmh NE 6.0 mph9.7 kmh 29.43 in996.6 mb 0.00 in0.0 mm 0.00 in0.0 mm 0.00 in0.0 mm
10:45 AM 53.4°F11.9°C 48.7°F9.3°C 84% 0.9 mph NE1.4 kmh NE 6.0 mph9.7 kmh 29.43 in996.6 mb 0.00 in0.0 mm 0.00 in0.0 mm 0.00 in0.0 mm
10:50 AM 53.8°F12.1°C 48.7°F9.3°C 83% 2.2 mph NNE3.5 kmh NNE 4.9 mph7.9 kmh 29.43 in996.6 mb 0.00 in0.0 mm 0.00 in0.0 mm 0.00 in0.0 mm
10:55 AM 53.8°F12.1°C 48.4°F9.1°C 82% 2.0 mph NNE3.2 kmh NNE 3.4 mph5.5 kmh 29.43 in996.6 mb 0.00 in0.0 mm 0.00 in0.0 mm 0.00 in0.0 mm
11:00 AM 53.8°F12.1°C 48.4°F9.1°C 82% 3.1 mph NE5.0 kmh NE 4.5 mph7.2 kmh 29.42 in996.3 mb 0.00 in0.0 mm 0.00 in0.0 mm 0.00 in0.0 mm
11:05 AM 54.0°F12.2°C 48.3°F9.1°C 81% 2.0 mph NE3.2 kmh NE 4.5 mph7.2 kmh 29.42 in996.3 mb 0.00 in0.0 mm 0.00 in0.0 mm 0.00 in0.0 mm
11:10 AM 54.0°F12.2°C 48.3°F9.1°C 81% Calm Calm 2.5 mph4.0 kmh 29.42 in996.3 mb 0.00 in0.0 mm 0.00 in0.0 mm 0.00 in0.0 mm
11:15 AM 54.0°F12.2°C 48.0°F8.9°C 80% Calm Calm 2.9 mph4.7 kmh 29.41 in995.9 mb 0.00 in0.0 mm 0.00 in0.0 mm 0.00 in0.0 mm
11:20 AM 54.1°F12.3°C 48.1°F8.9°C 80% Calm Calm 6.7 mph10.8 kmh 29.41 in995.9 mb 0.00 in0.0 mm 0.00 in0.0 mm 0.00 in0.0 mm
11:25 AM 54.3°F12.4°C 48.3°F9.1°C 80% Calm Calm 6.7 mph10.8 kmh 29.41 in995.9 mb 0.00 in0.0 mm 0.00 in0.0 mm 0.00 in0.0 mm
11:30 AM 54.3°F12.4°C 48.3°F9.1°C 80% 0.9 mph W1.4 kmh W 2.5 mph4.0 kmh 29.41 in995.9 mb 0.00 in0.0 mm 0.00 in0.0 mm 0.00 in0.0 mm
11:35 AM 54.3°F12.4°C 48.3°F9.1°C 80% 2.5 mph WSW4.0 kmh WSW 3.4 mph5.5 kmh 29.41 in995.9 mb 0.00 in0.0 mm 0.00 in0.0 mm 0.00 in0.0 mm
11:40 AM 54.3°F12.4°C 48.3°F9.1°C 80% Calm Calm 3.8 mph6.1 kmh 29.41 in995.9 mb 0.00 in0.0 mm 0.00 in0.0 mm 0.00 in0.0 mm
11:45 AM 54.5°F12.5°C 48.5°F9.2°C 80% 2.2 mph W3.5 kmh W 3.8 mph6.1 kmh 29.40 in995.6 mb 0.00 in0.0 mm 0.00 in0.0 mm 0.00 in0.0 mm
11:50 AM 54.9°F12.7°C 48.8°F9.3°C 80% 1.1 mph W1.8 kmh W 2.9 mph4.7 kmh 29.40 in995.6 mb 0.00 in0.0 mm 0.00 in0.0 mm 0.00 in0.0 mm
11:55 AM 55.0°F12.8°C 48.6°F9.2°C 79% 2.2 mph WSW3.5 kmh WSW 3.6 mph5.8 kmh 29.39 in995.3 mb 0.00 in0.0 mm 0.00 in0.0 mm 0.00 in0.0 mm
12:00 PM 55.0°F12.8°C 48.6°F9.2°C 79% Calm Calm 4.5 mph7.2 kmh 29.39 in995.3 mb 0.00 in0.0 mm 0.00 in0.0 mm 0.00 in0.0 mm
12:05 PM 55.2°F12.9°C 48.8°F9.3°C 79% 1.6 mph SW2.6 kmh SW 4.5 mph7.2 kmh 29.39 in995.3 mb 0.00 in0.0 mm 0.00 in0.0 mm 0.00 in0.0 mm
12:10 PM 55.2°F12.9°C 48.8°F9.3°C 79% 0.7 mph WSW1.1 kmh WSW 3.4 mph5.5 kmh 29.39 in995.3 mb 0.00 in0.0 mm 0.00 in0.0 mm 0.00 in0.0 mm
12:15 PM 55.2°F12.9°C 48.8°F9.3°C 79% Calm Calm 3.4 mph5.5 kmh 29.39 in995.3 mb 0.00 in0.0 mm 0.00 in0.0 mm 0.00 in0.0 mm
12:20 PM 55.2°F12.9°C 49.1°F9.5°C 80% 0.9 mph NW1.4 kmh NW 1.1 mph1.8 kmh 29.38 in994.9 mb 0.00 in0.0 mm 0.00 in0.0 mm 0.00 in0.0 mm
12:25 PM 55.2°F12.9°C 48.8°F9.3°C 79% 0.7 mph WSW1.1 kmh WSW 1.8 mph2.9 kmh 29.38 in994.9 mb 0.00 in0.0 mm 0.00 in0.0 mm 0.00 in0.0 mm
12:30 PM 55.2°F12.9°C 49.1°F9.5°C 80% Calm Calm 1.8 mph2.9 kmh 29.38 in994.9 mb 0.00 in0.0 mm 0.00 in0.0 mm 0.00 in0.0 mm
12:35 PM 55.2°F12.9°C 49.1°F9.5°C 80% Calm Calm -- 29.38 in994.9 mb 0.00 in0.0 mm 0.00 in0.0 mm 0.00 in0.0 mm
12:40 PM 55.2°F12.9°C 49.1°F9.5°C 80% Calm Calm -- 29.38 in994.9 mb 0.00 in0.0 mm 0.00 in0.0 mm 0.00 in0.0 mm
12:45 PM 55.2°F12.9°C 49.1°F9.5°C 80% Calm Calm 1.6 mph2.6 kmh 29.38 in994.9 mb 0.00 in0.0 mm 0.00 in0.0 mm 0.00 in0.0 mm
12:50 PM 55.2°F12.9°C 49.1°F9.5°C 80% Calm Calm 1.6 mph2.6 kmh 29.38 in994.9 mb 0.00 in0.0 mm 0.00 in0.0 mm 0.00 in0.0 mm
12:55 PM 55.2°F12.9°C 49.4°F9.7°C 81% 2.0 mph NNE3.2 kmh NNE 3.6 mph5.8 kmh 29.37 in994.6 mb 0.00 in0.0 mm 0.00 in0.0 mm 0.00 in0.0 mm
01:00 PM 55.2°F12.9°C 49.4°F9.7°C 81% 2.9 mph NE4.7 kmh NE 4.0 mph6.4 kmh 29.37 in994.6 mb 0.00 in0.0 mm 0.00 in0.0 mm 0.00 in0.0 mm
01:05 PM 55.2°F12.9°C 49.4°F9.7°C 81% 1.6 mph NE2.6 kmh NE 4.0 mph6.4 kmh 29.36 in994.2 mb 0.00 in0.0 mm 0.00 in0.0 mm 0.00 in0.0 mm
01:10 PM 55.2°F12.9°C 49.4°F9.7°C 81% 1.6 mph NE2.6 kmh NE 4.0 mph6.4 kmh 29.35 in993.9 mb 0.00 in0.0 mm 0.00 in0.0 mm 0.00 in0.0 mm
01:15 PM 55.2°F12.9°C 49.4°F9.7°C 81% 0.9 mph NNE1.4 kmh NNE 3.4 mph5.5 kmh 29.35 in993.9 mb 0.00 in0.0 mm 0.00 in0.0 mm 0.00 in0.0 mm
01:20 PM 55.2°F12.9°C 49.4°F9.7°C 81% Calm Calm 2.9 mph4.7 kmh 29.34 in993.6 mb 0.00 in0.0 mm 0.00 in0.0 mm 0.00 in0.0 mm
01:25 PM 55.2°F12.9°C 49.4°F9.7°C 81% Calm Calm 3.8 mph6.1 kmh 29.34 in993.6 mb 0.00 in0.0 mm 0.00 in0.0 mm 0.00 in0.0 mm
01:30 PM 55.0°F12.8°C 49.3°F9.6°C 81% Calm Calm 3.8 mph6.1 kmh 29.35 in993.9 mb 0.00 in0.0 mm 0.00 in0.0 mm 0.00 in0.0 mm
01:35 PM 55.0°F12.8°C 49.3°F9.6°C 81% Calm Calm 1.6 mph2.6 kmh 29.35 in993.9 mb 0.00 in0.0 mm 0.00 in0.0 mm 0.00 in0.0 mm
01:40 PM 55.0°F12.8°C 49.3°F9.6°C 81% Calm Calm 2.7 mph4.3 kmh 29.36 in994.2 mb 0.00 in0.0 mm 0.00 in0.0 mm 0.00 in0.0 mm
01:45 PM 54.7°F12.6°C 48.9°F9.4°C 81% 2.5 mph WSW4.0 kmh WSW 4.7 mph7.6 kmh 29.36 in994.2 mb 0.00 in0.0 mm 0.00 in0.0 mm 0.00 in0.0 mm
01:50 PM 54.5°F12.5°C 48.8°F9.3°C 81% 2.0 mph WSW3.2 kmh WSW 4.7 mph7.6 kmh 29.35 in993.9 mb 0.00 in0.0 mm 0.00 in0.0 mm 0.00 in0.0 mm
01:55 PM 54.5°F12.5°C 48.8°F9.3°C 81% 2.0 mph WSW3.2 kmh WSW 3.6 mph5.8 kmh 29.35 in993.9 mb 0.00 in0.0 mm 0.00 in0.0 mm 0.00 in0.0 mm
02:00 PM 54.3°F12.4°C 48.9°F9.4°C 82% Calm Calm 2.0 mph3.2 kmh 29.35 in993.9 mb 0.02 in0.5 mm 0.02 in0.5 mm 0.02 in0.5 mm
02:05 PM 54.1°F12.3°C 48.8°F9.3°C 82% 1.6 mph W2.6 kmh W 1.8 mph2.9 kmh 29.35 in993.9 mb 0.02 in0.5 mm 0.00 in0.0 mm 0.02 in0.5 mm
02:10 PM 54.0°F12.2°C 48.6°F9.2°C 82% Calm Calm 1.6 mph2.6 kmh 29.34 in993.6 mb 0.02 in0.5 mm 0.00 in0.0 mm 0.02 in0.5 mm
02:15 PM 54.0°F12.2°C 48.9°F9.4°C 83% Calm Calm 1.6 mph2.6 kmh 29.34 in993.6 mb 0.02 in0.5 mm 0.00 in0.0 mm 0.02 in0.5 mm
02:20 PM 54.0°F12.2°C 48.9°F9.4°C 83% Calm Calm 1.1 mph1.8 kmh 29.33 in993.2 mb 0.02 in0.5 mm 0.00 in0.0 mm 0.02 in0.5 mm
02:25 PM 53.8°F12.1°C 49.0°F9.4°C 84% Calm Calm 1.3 mph2.1 kmh 29.32 in992.9 mb 0.04 in1.0 mm 0.24 in6.1 mm 0.04 in1.0 mm
02:30 PM 53.8°F12.1°C 49.0°F9.4°C 84% Calm Calm 1.3 mph2.1 kmh 29.32 in992.9 mb 0.04 in1.0 mm 0.00 in0.0 mm 0.04 in1.0 mm
02:35 PM 53.4°F11.9°C 49.0°F9.4°C 85% Calm Calm 0.9 mph1.4 kmh 29.32 in992.9 mb 0.06 in1.5 mm 0.24 in6.1 mm 0.06 in1.5 mm
02:40 PM 53.4°F11.9°C 49.0°F9.4°C 85% Calm Calm 1.6 mph2.6 kmh 29.32 in992.9 mb 0.08 in2.0 mm 0.24 in6.1 mm 0.08 in2.0 mm
02:45 PM 53.2°F11.8°C 48.8°F9.3°C 85% Calm Calm 1.6 mph2.6 kmh 29.32 in992.9 mb 0.08 in2.0 mm 0.00 in0.0 mm 0.08 in2.0 mm
02:50 PM 53.2°F11.8°C 49.1°F9.5°C 86% Calm Calm 0.9 mph1.4 kmh 29.32 in992.9 mb 0.08 in2.0 mm 0.00 in0.0 mm 0.08 in2.0 mm
02:55 PM 53.2°F11.8°C 49.1°F9.5°C 86% Calm Calm 1.8 mph2.9 kmh 29.32 in992.9 mb 0.08 in2.0 mm 0.00 in0.0 mm 0.08 in2.0 mm
03:00 PM 53.2°F11.8°C 49.1°F9.5°C 86% Calm Calm 1.8 mph2.9 kmh 29.32 in992.9 mb 0.06 in1.5 mm 0.00 in0.0 mm 0.08 in2.0 mm
03:05 PM 53.2°F11.8°C 49.4°F9.7°C 87% Calm Calm 0.9 mph1.4 kmh 29.32 in992.9 mb 0.06 in1.5 mm 0.00 in0.0 mm 0.08 in2.0 mm
03:10 PM 52.9°F11.6°C 49.1°F9.5°C 87% 1.8 mph E2.9 kmh E 2.2 mph3.5 kmh 29.33 in993.2 mb 0.06 in1.5 mm 0.00 in0.0 mm 0.08 in2.0 mm
03:15 PM 52.7°F11.5°C 48.9°F9.4°C 87% Calm Calm 4.0 mph6.4 kmh 29.33 in993.2 mb 0.06 in1.5 mm 0.00 in0.0 mm 0.08 in2.0 mm
03:20 PM 52.5°F11.4°C 48.7°F9.3°C 87% Calm Calm 4.0 mph6.4 kmh 29.33 in993.2 mb 0.06 in1.5 mm 0.00 in0.0 mm 0.08 in2.0 mm
03:25 PM 52.5°F11.4°C 49.0°F9.4°C 88% Calm Calm 1.8 mph2.9 kmh 29.33 in993.2 mb 0.04 in1.0 mm 0.00 in0.0 mm 0.08 in2.0 mm
03:30 PM 52.5°F11.4°C 49.0°F9.4°C 88% Calm Calm 1.8 mph2.9 kmh 29.34 in993.6 mb 0.02 in0.5 mm 0.00 in0.0 mm 0.08 in2.0 mm
03:35 PM 52.5°F11.4°C 49.0°F9.4°C 88% Calm Calm 1.6 mph2.6 kmh 29.34 in993.6 mb 0.02 in0.5 mm 0.00 in0.0 mm 0.08 in2.0 mm
03:40 PM 52.5°F11.4°C 49.0°F9.4°C 88% Calm Calm 0.9 mph1.4 kmh 29.34 in993.6 mb 0.00 in0.0 mm 0.00 in0.0 mm 0.08 in2.0 mm
03:45 PM 52.3°F11.3°C 48.8°F9.3°C 88% 2.0 mph N3.2 kmh N 2.0 mph3.2 kmh 29.34 in993.6 mb 0.00 in0.0 mm 0.00 in0.0 mm 0.08 in2.0 mm
03:50 PM 52.5°F11.4°C 49.0°F9.4°C 88% Calm Calm 2.2 mph3.5 kmh 29.35 in993.9 mb 0.00 in0.0 mm 0.00 in0.0 mm 0.08 in2.0 mm
03:55 PM 52.5°F11.4°C 49.3°F9.6°C 89% Calm Calm 2.2 mph3.5 kmh 29.35 in993.9 mb 0.00 in0.0 mm 0.00 in0.0 mm 0.08 in2.0 mm
04:00 PM 52.5°F11.4°C 49.3°F9.6°C 89% 3.1 mph NE5.0 kmh NE 3.4 mph5.5 kmh 29.35 in993.9 mb 0.00 in0.0 mm 0.00 in0.0 mm 0.08 in2.0 mm
04:05 PM 52.3°F11.3°C 49.2°F9.6°C 89% 3.8 mph NE6.1 kmh NE 3.8 mph6.1 kmh 29.35 in993.9 mb 0.00 in0.0 mm 0.00 in0.0 mm 0.08 in2.0 mm
04:10 PM 52.3°F11.3°C 49.2°F9.6°C 89% Calm Calm 3.8 mph6.1 kmh 29.36 in994.2 mb 0.00 in0.0 mm 0.00 in0.0 mm 0.08 in2.0 mm
04:15 PM 52.3°F11.3°C 49.2°F9.6°C 89% Calm Calm 2.2 mph3.5 kmh 29.36 in994.2 mb 0.00 in0.0 mm 0.00 in0.0 mm 0.08 in2.0 mm
04:20 PM 52.3°F11.3°C 49.2°F9.6°C 89% Calm Calm 3.8 mph6.1 kmh 29.36 in994.2 mb 0.00 in0.0 mm 0.00 in0.0 mm 0.08 in2.0 mm
04:25 PM 52.3°F11.3°C 49.2°F9.6°C 89% Calm Calm 3.8 mph6.1 kmh 29.37 in994.6 mb 0.00 in0.0 mm 0.00 in0.0 mm 0.08 in2.0 mm
04:30 PM 52.3°F11.3°C 49.2°F9.6°C 89% 0.9 mph NE1.4 kmh NE 4.3 mph6.9 kmh 29.37 in994.6 mb 0.00 in0.0 mm 0.00 in0.0 mm 0.08 in2.0 mm
04:35 PM 52.3°F11.3°C 49.2°F9.6°C 89% 0.9 mph NE1.4 kmh NE 4.3 mph6.9 kmh 29.37 in994.6 mb 0.00 in0.0 mm 0.00 in0.0 mm 0.08 in2.0 mm
04:40 PM 52.3°F11.3°C 49.2°F9.6°C 89% 5.1 mph NE8.2 kmh NE 5.1 mph8.2 kmh 29.37 in994.6 mb 0.00 in0.0 mm 0.00 in0.0 mm 0.08 in2.0 mm
04:45 PM 52.3°F11.3°C 49.2°F9.6°C 89% Calm Calm 7.8 mph12.6 kmh 29.37 in994.6 mb 0.00 in0.0 mm 0.00 in0.0 mm 0.08 in2.0 mm
04:50 PM 52.3°F11.3°C 49.2°F9.6°C 89% 2.9 mph NE4.7 kmh NE 7.8 mph12.6 kmh 29.37 in994.6 mb 0.00 in0.0 mm 0.00 in0.0 mm 0.08 in2.0 mm
04:55 PM 52.3°F11.3°C 49.2°F9.6°C 89% 3.6 mph NE5.8 kmh NE 5.1 mph8.2 kmh 29.37 in994.6 mb 0.00 in0.0 mm 0.00 in0.0 mm 0.08 in2.0 mm
05:00 PM 52.3°F11.3°C 49.5°F9.7°C 90% Calm Calm 3.6 mph5.8 kmh 29.37 in994.6 mb 0.00 in0.0 mm 0.00 in0.0 mm 0.08 in2.0 mm
05:05 PM 52.3°F11.3°C 49.5°F9.7°C 90% Calm Calm 2.7 mph4.3 kmh 29.37 in994.6 mb 0.00 in0.0 mm 0.00 in0.0 mm 0.08 in2.0 mm
05:10 PM 52.3°F11.3°C 49.5°F9.7°C 90% Calm Calm 2.2 mph3.5 kmh 29.37 in994.6 mb 0.00 in0.0 mm 0.00 in0.0 mm 0.08 in2.0 mm
05:15 PM 52.3°F11.3°C 49.5°F9.7°C 90% 0.9 mph N1.4 kmh N 2.9 mph4.7 kmh 29.37 in994.6 mb 0.00 in0.0 mm 0.00 in0.0 mm 0.08 in2.0 mm
05:20 PM 52.3°F11.3°C 49.5°F9.7°C 90% Calm Calm 3.1 mph5.0 kmh 29.37 in994.6 mb 0.00 in0.0 mm 0.00 in0.0 mm 0.08 in2.0 mm
05:25 PM 52.3°F11.3°C 49.5°F9.7°C 90% Calm Calm 3.8 mph6.1 kmh 29.37 in994.6 mb 0.00 in0.0 mm 0.00 in0.0 mm 0.08 in2.0 mm
05:30 PM 52.3°F11.3°C 49.5°F9.7°C 90% 2.0 mph N3.2 kmh N 3.8 mph6.1 kmh 29.37 in994.6 mb 0.00 in0.0 mm 0.00 in0.0 mm 0.08 in2.0 mm
05:35 PM 52.3°F11.3°C 49.5°F9.7°C 90% Calm Calm 2.5 mph4.0 kmh 29.37 in994.6 mb 0.00 in0.0 mm 0.00 in0.0 mm 0.08 in2.0 mm
05:40 PM 52.3°F11.3°C 49.5°F9.7°C 90% 2.0 mph NNE3.2 kmh NNE 2.5 mph4.0 kmh 29.37 in994.6 mb 0.00 in0.0 mm 0.00 in0.0 mm 0.08 in2.0 mm
05:45 PM 52.3°F11.3°C 49.5°F9.7°C 90% 1.6 mph NNE2.6 kmh NNE 3.1 mph5.0 kmh 29.37 in994.6 mb 0.00 in0.0 mm 0.00 in0.0 mm 0.08 in2.0 mm
05:50 PM 52.3°F11.3°C 49.5°F9.7°C 90% Calm Calm 5.1 mph8.2 kmh 29.37 in994.6 mb 0.00 in0.0 mm 0.00 in0.0 mm 0.08 in2.0 mm
05:55 PM 52.3°F11.3°C 49.5°F9.7°C 90% Calm Calm 5.1 mph8.2 kmh 29.36 in994.2 mb 0.00 in0.0 mm 0.00 in0.0 mm 0.08 in2.0 mm
06:00 PM 52.3°F11.3°C 49.5°F9.7°C 90% 1.6 mph NW2.6 kmh NW 2.5 mph4.0 kmh 29.37 in994.6 mb 0.00 in0.0 mm 0.00 in0.0 mm 0.08 in2.0 mm
06:05 PM 52.3°F11.3°C 49.5°F9.7°C 90% 1.1 mph NW1.8 kmh NW 2.5 mph4.0 kmh 29.36 in994.2 mb 0.00 in0.0 mm 0.00 in0.0 mm 0.08 in2.0 mm
06:10 PM 52.3°F11.3°C 49.5°F9.7°C 90% 1.6 mph N2.6 kmh N 1.8 mph2.9 kmh 29.37 in994.6 mb 0.00 in0.0 mm 0.00 in0.0 mm 0.08 in2.0 mm
06:15 PM 52.3°F11.3°C 49.5°F9.7°C 90% Calm Calm 1.6 mph2.6 kmh 29.36 in994.2 mb 0.00 in0.0 mm 0.00 in0.0 mm 0.08 in2.0 mm
06:20 PM 52.3°F11.3°C 49.5°F9.7°C 90% Calm Calm 2.9 mph4.7 kmh 29.36 in994.2 mb 0.02 in0.5 mm 0.24 in6.1 mm 0.10 in2.5 mm
06:25 PM 52.3°F11.3°C 49.5°F9.7°C 90% Calm Calm 4.0 mph6.4 kmh 29.36 in994.2 mb 0.02 in0.5 mm 0.00 in0.0 mm 0.10 in2.5 mm
06:30 PM 52.3°F11.3°C 49.5°F9.7°C 90% 2.0 mph N3.2 kmh N 4.0 mph6.4 kmh 29.36 in994.2 mb 0.02 in0.5 mm 0.00 in0.0 mm 0.10 in2.5 mm
06:35 PM 52.3°F11.3°C 49.5°F9.7°C 90% Calm Calm 3.1 mph5.0 kmh 29.36 in994.2 mb 0.02 in0.5 mm 0.00 in0.0 mm 0.10 in2.5 mm
06:40 PM 52.3°F11.3°C 49.5°F9.7°C 90% 0.9 mph NNE1.4 kmh NNE 3.1 mph5.0 kmh 29.36 in994.2 mb 0.04 in1.0 mm 0.24 in6.1 mm 0.12 in3.0 mm
06:45 PM 52.2°F11.2°C 49.6°F9.8°C 91% 8.7 mph W14.0 kmh W 8.7 mph14.0 kmh 29.36 in994.2 mb 0.06 in1.5 mm 0.24 in6.1 mm 0.14 in3.6 mm
06:50 PM 50.2°F10.1°C 46.1°F7.8°C 86% 9.8 mph SW15.8 kmh SW 22.1 mph35.6 kmh 29.36 in994.2 mb 0.10 in2.5 mm 0.48 in12.2 mm 0.18 in4.6 mm
06:55 PM 49.6°F9.8°C 45.9°F7.7°C 87% 13.0 mph SSW20.9 kmh SSW 22.1 mph35.6 kmh 29.36 in994.2 mb 0.12 in3.0 mm 0.24 in6.1 mm 0.20 in5.1 mm
07:00 PM 49.3°F9.6°C 45.5°F7.5°C 87% 13.0 mph SSW20.9 kmh SSW 19.7 mph31.7 kmh 29.36 in994.2 mb 0.12 in3.0 mm 0.00 in0.0 mm 0.20 in5.1 mm
07:05 PM 49.1°F9.5°C 45.4°F7.4°C 87% 11.2 mph SSW18.0 kmh SSW 18.8 mph30.3 kmh 29.36 in994.2 mb 0.12 in3.0 mm 0.00 in0.0 mm 0.20 in5.1 mm
07:10 PM 49.1°F9.5°C 45.4°F7.4°C 87% 5.4 mph SSW8.7 kmh SSW 15.7 mph25.3 kmh 29.36 in994.2 mb 0.12 in3.0 mm 0.00 in0.0 mm 0.20 in5.1 mm
07:15 PM 49.1°F9.5°C 45.7°F7.6°C 88% 6.0 mph SSW9.7 kmh SSW 14.1 mph22.7 kmh 29.36 in994.2 mb 0.12 in3.0 mm 0.00 in0.0 mm 0.20 in5.1 mm
07:20 PM 49.1°F9.5°C 45.4°F7.4°C 87% 2.9 mph SSW4.7 kmh SSW 14.1 mph22.7 kmh 29.36 in994.2 mb 0.10 in2.5 mm 0.00 in0.0 mm 0.20 in5.1 mm
07:25 PM 49.1°F9.5°C 45.7°F7.6°C 88% 6.3 mph SSW10.1 kmh SSW 13.4 mph21.6 kmh 29.37 in994.6 mb 0.12 in3.0 mm 0.24 in6.1 mm 0.22 in5.6 mm
07:30 PM 49.1°F9.5°C 45.7°F7.6°C 88% 0.9 mph SSW1.4 kmh SSW 11.4 mph18.3 kmh 29.37 in994.6 mb 0.12 in3.0 mm 0.00 in0.0 mm 0.22 in5.6 mm
07:35 PM 48.9°F9.4°C 45.5°F7.5°C 88% 2.7 mph S4.3 kmh S 6.7 mph10.8 kmh 29.37 in994.6 mb 0.12 in3.0 mm 0.00 in0.0 mm 0.22 in5.6 mm
07:40 PM 48.9°F9.4°C 45.5°F7.5°C 88% 3.8 mph S6.1 kmh S 6.3 mph10.1 kmh 29.37 in994.6 mb 0.10 in2.5 mm 0.00 in0.0 mm 0.22 in5.6 mm
07:45 PM 48.9°F9.4°C 45.5°F7.5°C 88% Calm Calm 4.7 mph7.6 kmh 29.38 in994.9 mb 0.10 in2.5 mm 0.00 in0.0 mm 0.24 in6.1 mm
07:50 PM 48.7°F9.3°C 45.3°F7.4°C 88% 1.3 mph S2.1 kmh S 2.7 mph4.3 kmh 29.38 in994.9 mb 0.04 in1.0 mm 0.00 in0.0 mm 0.24 in6.1 mm
07:55 PM 48.7°F9.3°C 45.3°F7.4°C 88% Calm Calm 2.2 mph3.5 kmh 29.38 in994.9 mb 0.04 in1.0 mm 0.00 in0.0 mm 0.24 in6.1 mm
08:00 PM 48.7°F9.3°C 45.3°F7.4°C 88% Calm Calm 1.8 mph2.9 kmh 29.38 in994.9 mb 0.04 in1.0 mm 0.00 in0.0 mm 0.24 in6.1 mm
08:05 PM 48.7°F9.3°C 45.3°F7.4°C 88% Calm Calm 1.6 mph2.6 kmh 29.39 in995.3 mb 0.04 in1.0 mm 0.00 in0.0 mm 0.24 in6.1 mm
08:10 PM 48.7°F9.3°C 45.3°F7.4°C 88% Calm Calm -- 29.39 in995.3 mb 0.04 in1.0 mm 0.00 in0.0 mm 0.24 in6.1 mm
08:15 PM 48.7°F9.3°C 45.3°F7.4°C 88% 1.1 mph SW1.8 kmh SW 1.6 mph2.6 kmh 29.39 in995.3 mb 0.04 in1.0 mm 0.00 in0.0 mm 0.24 in6.1 mm
08:20 PM 48.6°F9.2°C 45.2°F7.3°C 88% 1.6 mph SSW2.6 kmh SSW 1.8 mph2.9 kmh 29.39 in995.3 mb 0.04 in1.0 mm 0.00 in0.0 mm 0.24 in6.1 mm
08:25 PM 48.4°F9.1°C 45.0°F7.2°C 88% Calm Calm 1.8 mph2.9 kmh 29.39 in995.3 mb 0.02 in0.5 mm 0.00 in0.0 mm 0.24 in6.1 mm
08:30 PM 48.4°F9.1°C 45.3°F7.4°C 89% 1.3 mph SSW2.1 kmh SSW 1.8 mph2.9 kmh 29.39 in995.3 mb 0.02 in0.5 mm 0.00 in0.0 mm 0.24 in6.1 mm
08:35 PM 48.4°F9.1°C 45.3°F7.4°C 89% Calm Calm 1.8 mph2.9 kmh 29.39 in995.3 mb 0.02 in0.5 mm 0.00 in0.0 mm 0.24 in6.1 mm
08:40 PM 48.2°F9.0°C 45.2°F7.3°C 89% Calm Calm 1.3 mph2.1 kmh 29.40 in995.6 mb 0.02 in0.5 mm 0.00 in0.0 mm 0.24 in6.1 mm
08:45 PM 48.2°F9.0°C 45.2°F7.3°C 89% Calm Calm 2.0 mph3.2 kmh 29.40 in995.6 mb 0.00 in0.0 mm 0.00 in0.0 mm 0.24 in6.1 mm
08:50 PM 48.0°F8.9°C 45.0°F7.2°C 89% 0.9 mph S1.4 kmh S 2.0 mph3.2 kmh 29.40 in995.6 mb 0.00 in0.0 mm 0.00 in0.0 mm 0.24 in6.1 mm
08:55 PM 48.0°F8.9°C 45.0°F7.2°C 89% Calm Calm 1.6 mph2.6 kmh 29.40 in995.6 mb 0.00 in0.0 mm 0.00 in0.0 mm 0.24 in6.1 mm
09:00 PM 48.0°F8.9°C 45.0°F7.2°C 89% Calm Calm 1.6 mph2.6 kmh 29.40 in995.6 mb 0.00 in0.0 mm 0.00 in0.0 mm 0.24 in6.1 mm
09:05 PM 48.0°F8.9°C 45.0°F7.2°C 89% Calm Calm 0.9 mph1.4 kmh 29.41 in995.9 mb 0.00 in0.0 mm 0.00 in0.0 mm 0.24 in6.1 mm
09:10 PM 48.0°F8.9°C 45.0°F7.2°C 89% 1.8 mph SW2.9 kmh SW 2.0 mph3.2 kmh 29.40 in995.6 mb 0.00 in0.0 mm 0.00 in0.0 mm 0.24 in6.1 mm
09:15 PM 48.0°F8.9°C 45.0°F7.2°C 89% 0.7 mph SW1.1 kmh SW 2.0 mph3.2 kmh 29.41 in995.9 mb 0.00 in0.0 mm 0.00 in0.0 mm 0.24 in6.1 mm
09:20 PM 48.0°F8.9°C 45.0°F7.2°C 89% 1.8 mph SW2.9 kmh SW 2.0 mph3.2 kmh 29.40 in995.6 mb 0.00 in0.0 mm 0.00 in0.0 mm 0.24 in6.1 mm
09:25 PM 47.8°F8.8°C 45.1°F7.3°C 90% 2.2 mph SW3.5 kmh SW 2.5 mph4.0 kmh 29.41 in995.9 mb 0.00 in0.0 mm 0.00 in0.0 mm 0.24 in6.1 mm
09:30 PM 47.8°F8.8°C 45.1°F7.3°C 90% 2.2 mph SW3.5 kmh SW 2.9 mph4.7 kmh 29.40 in995.6 mb 0.00 in0.0 mm 0.00 in0.0 mm 0.24 in6.1 mm
09:35 PM 47.8°F8.8°C 45.1°F7.3°C 90% 1.6 mph SSW2.6 kmh SSW 2.9 mph4.7 kmh 29.40 in995.6 mb 0.00 in0.0 mm 0.00 in0.0 mm 0.24 in6.1 mm
09:40 PM 47.8°F8.8°C 45.1°F7.3°C 90% 1.3 mph SW2.1 kmh SW 2.2 mph3.5 kmh 29.40 in995.6 mb 0.00 in0.0 mm 0.00 in0.0 mm 0.24 in6.1 mm
09:45 PM 47.8°F8.8°C 45.1°F7.3°C 90% 0.9 mph SW1.4 kmh SW 2.2 mph3.5 kmh 29.40 in995.6 mb 0.00 in0.0 mm 0.00 in0.0 mm 0.24 in6.1 mm
09:50 PM 47.8°F8.8°C 45.1°F7.3°C 90% 1.8 mph SW2.9 kmh SW 2.2 mph3.5 kmh 29.40 in995.6 mb 0.00 in0.0 mm 0.00 in0.0 mm 0.24 in6.1 mm
09:55 PM 47.8°F8.8°C 45.1°F7.3°C 90% 2.2 mph SSW3.5 kmh SSW 2.2 mph3.5 kmh 29.39 in995.3 mb 0.00 in0.0 mm 0.00 in0.0 mm 0.24 in6.1 mm
10:00 PM 47.8°F8.8°C 45.1°F7.3°C 90% 0.7 mph SSW1.1 kmh SSW 2.2 mph3.5 kmh 29.39 in995.3 mb 0.00 in0.0 mm 0.00 in0.0 mm 0.24 in6.1 mm
10:05 PM 47.8°F8.8°C 45.4°F7.4°C 91% 0.9 mph SSW1.4 kmh SSW 2.2 mph3.5 kmh 29.39 in995.3 mb 0.00 in0.0 mm 0.00 in0.0 mm 0.24 in6.1 mm
10:10 PM 47.7°F8.7°C 45.2°F7.3°C 91% Calm Calm 2.5 mph4.0 kmh 29.39 in995.3 mb 0.00 in0.0 mm 0.00 in0.0 mm 0.24 in6.1 mm
10:15 PM 47.7°F8.7°C 45.2°F7.3°C 91% 0.9 mph SW1.4 kmh SW 2.5 mph4.0 kmh 29.39 in995.3 mb 0.02 in0.5 mm 0.24 in6.1 mm 0.26 in6.6 mm
10:20 PM 47.7°F8.7°C 45.2°F7.3°C 91% Calm Calm 2.0 mph3.2 kmh 29.39 in995.3 mb 0.02 in0.5 mm 0.00 in0.0 mm 0.26 in6.6 mm
10:25 PM 47.7°F8.7°C 45.2°F7.3°C 91% Calm Calm 1.6 mph2.6 kmh 29.39 in995.3 mb 0.02 in0.5 mm 0.00 in0.0 mm 0.26 in6.6 mm
10:30 PM 47.5°F8.6°C 45.0°F7.2°C 91% Calm Calm -- 29.40 in995.6 mb 0.02 in0.5 mm 0.00 in0.0 mm 0.26 in6.6 mm
10:35 PM 47.7°F8.7°C 45.2°F7.3°C 91% 1.3 mph SSW2.1 kmh SSW 1.3 mph2.1 kmh 29.39 in995.3 mb 0.02 in0.5 mm 0.00 in0.0 mm 0.26 in6.6 mm
10:40 PM 47.5°F8.6°C 45.0°F7.2°C 91% Calm Calm 1.3 mph2.1 kmh 29.40 in995.6 mb 0.02 in0.5 mm 0.00 in0.0 mm 0.26 in6.6 mm
10:45 PM 47.5°F8.6°C 45.0°F7.2°C 91% Calm Calm 1.6 mph2.6 kmh 29.39 in995.3 mb 0.02 in0.5 mm 0.00 in0.0 mm 0.26 in6.6 mm
10:50 PM 47.5°F8.6°C 45.0°F7.2°C 91% Calm Calm 1.8 mph2.9 kmh 29.39 in995.3 mb 0.02 in0.5 mm 0.00 in0.0 mm 0.26 in6.6 mm
10:55 PM 47.5°F8.6°C 45.0°F7.2°C 91% Calm Calm 1.8 mph2.9 kmh 29.39 in995.3 mb 0.02 in0.5 mm 0.00 in0.0 mm 0.26 in6.6 mm
11:00 PM 47.3°F8.5°C 44.9°F7.2°C 91% Calm Calm 1.6 mph2.6 kmh 29.39 in995.3 mb 0.02 in0.5 mm 0.00 in0.0 mm 0.26 in6.6 mm
11:05 PM 47.3°F8.5°C 44.9°F7.2°C 91% Calm Calm 1.6 mph2.6 kmh 29.39 in995.3 mb 0.02 in0.5 mm 0.00 in0.0 mm 0.26 in6.6 mm
11:10 PM 47.3°F8.5°C 44.9°F7.2°C 91% Calm Calm 1.3 mph2.1 kmh 29.39 in995.3 mb 0.02 in0.5 mm 0.00 in0.0 mm 0.26 in6.6 mm
11:15 PM 47.1°F8.4°C 44.7°F7.1°C 91% Calm Calm 1.3 mph2.1 kmh 29.39 in995.3 mb 0.00 in0.0 mm 0.00 in0.0 mm 0.26 in6.6 mm
11:20 PM 47.1°F8.4°C 44.7°F7.1°C 91% Calm Calm 2.9 mph4.7 kmh 29.39 in995.3 mb 0.00 in0.0 mm 0.00 in0.0 mm 0.26 in6.6 mm
11:25 PM 47.1°F8.4°C 44.7°F7.1°C 91% Calm Calm 2.9 mph4.7 kmh 29.39 in995.3 mb 0.00 in0.0 mm 0.00 in0.0 mm 0.26 in6.6 mm
11:30 PM 47.1°F8.4°C 44.7°F7.1°C 91% Calm Calm 1.8 mph2.9 kmh 29.39 in995.3 mb 0.00 in0.0 mm 0.00 in0.0 mm 0.26 in6.6 mm
11:35 PM 47.1°F8.4°C 44.7°F7.1°C 91% Calm Calm 1.6 mph2.6 kmh 29.38 in994.9 mb 0.00 in0.0 mm 0.00 in0.0 mm 0.26 in6.6 mm
11:40 PM 46.9°F8.3°C 44.5°F6.9°C 91% 1.6 mph SW2.6 kmh SW 1.8 mph2.9 kmh 29.38 in994.9 mb 0.00 in0.0 mm 0.00 in0.0 mm 0.26 in6.6 mm
11:45 PM 46.9°F8.3°C 44.5°F6.9°C 91% 2.2 mph SSW3.5 kmh SSW 2.2 mph3.5 kmh 29.38 in994.9 mb 0.00 in0.0 mm 0.00 in0.0 mm 0.26 in6.6 mm
11:50 PM 46.8°F8.2°C 44.3°F6.8°C 91% 1.6 mph SSW2.6 kmh SSW 2.9 mph4.7 kmh 29.38 in994.9 mb 0.00 in0.0 mm 0.00 in0.0 mm 0.26 in6.6 mm
11:55 PM 46.8°F8.2°C 44.3°F6.8°C 91% 2.2 mph SW3.5 kmh SW 2.9 mph4.7 kmh 29.38 in994.9 mb 0.00 in0.0 mm 0.00 in0.0 mm 0.26 in6.6 mm